sensor_id;sensor_type;location;lat;lon;timestamp;temperature;humidity
46706;DHT22;33519;50.712;7.124;2023-04-10T00:02:19;6.40;99.90
46706;DHT22;33519;50.712;7.124;2023-04-10T00:04:46;6.40;99.90
46706;DHT22;33519;50.712;7.124;2023-04-10T00:07:13;6.40;99.90
46706;DHT22;33519;50.712;7.124;2023-04-10T00:09:40;6.40;99.90
46706;DHT22;33519;50.712;7.124;2023-04-10T00:12:06;6.30;99.90
46706;DHT22;33519;50.712;7.124;2023-04-10T00:14:33;6.40;99.90
46706;DHT22;33519;50.712;7.124;2023-04-10T00:17:02;6.40;99.90
46706;DHT22;33519;50.712;7.124;2023-04-10T00:19:29;6.40;99.90
46706;DHT22;33519;50.712;7.124;2023-04-10T00:21:55;6.30;99.90
46706;DHT22;33519;50.712;7.124;2023-04-10T00:24:22;6.30;99.90
46706;DHT22;33519;50.712;7.124;2023-04-10T00:26:48;6.20;99.90
46706;DHT22;33519;50.712;7.124;2023-04-10T00:29:15;6.10;99.90
46706;DHT22;33519;50.712;7.124;2023-04-10T00:31:42;6.00;99.90
46706;DHT22;33519;50.712;7.124;2023-04-10T00:34:08;6.00;99.90
46706;DHT22;33519;50.712;7.124;2023-04-10T00:36:35;6.00;99.90
46706;DHT22;33519;50.712;7.124;2023-04-10T00:39:02;5.90;99.90
46706;DHT22;33519;50.712;7.124;2023-04-10T00:41:32;6.00;99.90
46706;DHT22;33519;50.712;7.124;2023-04-10T00:43:58;5.90;99.90
46706;DHT22;33519;50.712;7.124;2023-04-10T00:46:26;5.90;99.90
46706;DHT22;33519;50.712;7.124;2023-04-10T00:48:53;6.00;99.90
46706;DHT22;33519;50.712;7.124;2023-04-10T00:51:20;6.00;99.90
46706;DHT22;33519;50.712;7.124;2023-04-10T00:53:48;5.90;99.90
46706;DHT22;33519;50.712;7.124;2023-04-10T00:56:22;5.90;99.90
46706;DHT22;33519;50.712;7.124;2023-04-10T01:01:19;5.90;99.90
46706;DHT22;33519;50.712;7.124;2023-04-10T01:03:46;5.90;99.90
46706;DHT22;33519;50.712;7.124;2023-04-10T01:16:30;5.90;99.90
46706;DHT22;33519;50.712;7.124;2023-04-10T01:19:01;6.00;99.90
46706;DHT22;33519;50.712;7.124;2023-04-10T01:21:32;5.90;99.90
46706;DHT22;33519;50.712;7.124;2023-04-10T01:29:10;5.80;99.90
46706;DHT22;33519;50.712;7.124;2023-04-10T01:32:22;5.80;99.90
46706;DHT22;33519;50.712;7.124;2023-04-10T01:34:38;5.70;99.90
46706;DHT22;33519;50.712;7.124;2023-04-10T01:37:48;5.60;99.90
46706;DHT22;33519;50.712;7.124;2023-04-10T01:40:00;5.60;99.90
46706;DHT22;33519;50.712;7.124;2023-04-10T01:42:30;5.60;99.90
46706;DHT22;33519;50.712;7.124;2023-04-10T01:44:57;5.60;99.90
46706;DHT22;33519;50.712;7.124;2023-04-10T01:47:24;5.60;99.90
46706;DHT22;33519;50.712;7.124;2023-04-10T01:49:52;5.70;99.90
46706;DHT22;33519;50.712;7.124;2023-04-10T01:52:19;5.70;99.90
46706;DHT22;33519;50.712;7.124;2023-04-10T01:54:46;5.70;99.90
46706;DHT22;33519;50.712;7.124;2023-04-10T01:57:14;5.70;99.90
46706;DHT22;33519;50.712;7.124;2023-04-10T01:59:41;5.70;99.90
46706;DHT22;33519;50.712;7.124;2023-04-10T02:02:08;5.70;99.90
46706;DHT22;33519;50.712;7.124;2023-04-10T02:04:37;5.80;99.90
46706;DHT22;33519;50.712;7.124;2023-04-10T02:07:12;5.80;99.90
46706;DHT22;33519;50.712;7.124;2023-04-10T02:09:57;5.80;99.90
46706;DHT22;33519;50.712;7.124;2023-04-10T02:14:53;5.80;99.90
46706;DHT22;33519;50.712;7.124;2023-04-10T02:17:23;5.80;99.90
46706;DHT22;33519;50.712;7.124;2023-04-10T02:19:52;5.80;99.90
46706;DHT22;33519;50.712;7.124;2023-04-10T02:22:18;5.90;99.90
46706;DHT22;33519;50.712;7.124;2023-04-10T02:24:45;5.90;99.90
46706;DHT22;33519;50.712;7.124;2023-04-10T02:27:12;5.90;99.90
46706;DHT22;33519;50.712;7.124;2023-04-10T02:29:38;5.80;99.90
46706;DHT22;33519;50.712;7.124;2023-04-10T02:32:05;5.90;99.90
46706;DHT22;33519;50.712;7.124;2023-04-10T02:34:32;5.80;99.90
46706;DHT22;33519;50.712;7.124;2023-04-10T02:36:58;5.70;99.90
46706;DHT22;33519;50.712;7.124;2023-04-10T02:39:25;5.70;99.90
46706;DHT22;33519;50.712;7.124;2023-04-10T02:41:52;5.70;99.90
46706;DHT22;33519;50.712;7.124;2023-04-10T02:44:18;5.70;99.90
46706;DHT22;33519;50.712;7.124;2023-04-10T02:46:45;5.80;99.90
46706;DHT22;33519;50.712;7.124;2023-04-10T02:49:12;5.80;99.90
46706;DHT22;33519;50.712;7.124;2023-04-10T02:51:39;5.80;99.90
46706;DHT22;33519;50.712;7.124;2023-04-10T02:54:05;5.80;99.90
46706;DHT22;33519;50.712;7.124;2023-04-10T02:56:32;5.70;99.90
46706;DHT22;33519;50.712;7.124;2023-04-10T02:59:00;5.70;99.90
46706;DHT22;33519;50.712;7.124;2023-04-10T03:01:26;5.60;99.90
46706;DHT22;33519;50.712;7.124;2023-04-10T03:03:53;5.60;99.90
46706;DHT22;33519;50.712;7.124;2023-04-10T03:06:20;5.60;99.90
46706;DHT22;33519;50.712;7.124;2023-04-10T03:08:48;5.50;99.90
46706;DHT22;33519;50.712;7.124;2023-04-10T03:11:15;5.40;99.90
46706;DHT22;33519;50.712;7.124;2023-04-10T03:13:42;5.40;99.90
46706;DHT22;33519;50.712;7.124;2023-04-10T03:16:09;5.40;99.90
46706;DHT22;33519;50.712;7.124;2023-04-10T03:18:36;5.30;99.90
46706;DHT22;33519;50.712;7.124;2023-04-10T03:21:04;5.30;99.90
46706;DHT22;33519;50.712;7.124;2023-04-10T03:23:31;5.30;99.90
46706;DHT22;33519;50.712;7.124;2023-04-10T03:25:57;5.20;99.90
46706;DHT22;33519;50.712;7.124;2023-04-10T03:28:24;5.20;99.90
46706;DHT22;33519;50.712;7.124;2023-04-10T03:30:51;5.10;99.90
46706;DHT22;33519;50.712;7.124;2023-04-10T03:33:17;5.10;99.90
46706;DHT22;33519;50.712;7.124;2023-04-10T03:35:44;5.10;99.90
46706;DHT22;33519;50.712;7.124;2023-04-10T03:38:12;5.00;99.90
46706;DHT22;33519;50.712;7.124;2023-04-10T03:40:38;5.00;99.90
46706;DHT22;33519;50.712;7.124;2023-04-10T03:43:05;5.00;99.90
46706;DHT22;33519;50.712;7.124;2023-04-10T03:45:31;4.90;99.90
46706;DHT22;33519;50.712;7.124;2023-04-10T03:47:59;4.90;99.90
46706;DHT22;33519;50.712;7.124;2023-04-10T03:50:26;4.90;99.90
46706;DHT22;33519;50.712;7.124;2023-04-10T03:52:52;4.80;99.90
46706;DHT22;33519;50.712;7.124;2023-04-10T03:55:19;4.90;99.90
46706;DHT22;33519;50.712;7.124;2023-04-10T03:57:46;4.90;99.90
46706;DHT22;33519;50.712;7.124;2023-04-10T04:00:13;4.90;99.90
46706;DHT22;33519;50.712;7.124;2023-04-10T04:02:40;4.80;99.90
46706;DHT22;33519;50.712;7.124;2023-04-10T04:05:07;4.80;99.90
46706;DHT22;33519;50.712;7.124;2023-04-10T04:07:34;4.80;99.90
46706;DHT22;33519;50.712;7.124;2023-04-10T04:10:01;4.90;99.90
46706;DHT22;33519;50.712;7.124;2023-04-10T04:12:27;4.80;99.90
46706;DHT22;33519;50.712;7.124;2023-04-10T04:14:54;4.80;99.90
46706;DHT22;33519;50.712;7.124;2023-04-10T04:17:20;4.70;99.90
46706;DHT22;33519;50.712;7.124;2023-04-10T04:19:47;4.70;99.90
46706;DHT22;33519;50.712;7.124;2023-04-10T04:22:14;4.80;99.90
46706;DHT22;33519;50.712;7.124;2023-04-10T04:24:40;4.80;99.90
46706;DHT22;33519;50.712;7.124;2023-04-10T04:27:07;4.80;99.90
46706;DHT22;33519;50.712;7.124;2023-04-10T04:29:33;4.80;99.90
46706;DHT22;33519;50.712;7.124;2023-04-10T04:32:00;4.70;99.90
46706;DHT22;33519;50.712;7.124;2023-04-10T04:34:27;4.70;99.90
46706;DHT22;33519;50.712;7.124;2023-04-10T04:36:54;4.70;99.90
46706;DHT22;33519;50.712;7.124;2023-04-10T04:39:20;4.70;99.90
46706;DHT22;33519;50.712;7.124;2023-04-10T04:41:48;4.80;99.90
46706;DHT22;33519;50.712;7.124;2023-04-10T04:44:15;4.80;99.90
46706;DHT22;33519;50.712;7.124;2023-04-10T04:46:41;4.80;99.90
46706;DHT22;33519;50.712;7.124;2023-04-10T04:49:10;4.80;99.90
46706;DHT22;33519;50.712;7.124;2023-04-10T04:51:36;4.80;99.90
46706;DHT22;33519;50.712;7.124;2023-04-10T04:54:03;4.80;99.90
46706;DHT22;33519;50.712;7.124;2023-04-10T04:56:30;4.80;99.90
46706;DHT22;33519;50.712;7.124;2023-04-10T04:58:56;4.80;99.90
46706;DHT22;33519;50.712;7.124;2023-04-10T05:01:23;4.80;99.90
46706;DHT22;33519;50.712;7.124;2023-04-10T05:03:50;4.80;99.90
46706;DHT22;33519;50.712;7.124;2023-04-10T05:06:17;4.80;99.90
46706;DHT22;33519;50.712;7.124;2023-04-10T05:08:44;4.80;99.90
46706;DHT22;33519;50.712;7.124;2023-04-10T05:11:10;4.80;99.90
46706;DHT22;33519;50.712;7.124;2023-04-10T05:13:37;4.80;99.90
46706;DHT22;33519;50.712;7.124;2023-04-10T05:16:04;4.80;99.90
46706;DHT22;33519;50.712;7.124;2023-04-10T05:18:34;4.80;99.90
46706;DHT22;33519;50.712;7.124;2023-04-10T05:21:04;4.70;99.90
46706;DHT22;33519;50.712;7.124;2023-04-10T05:23:31;4.70;99.90
46706;DHT22;33519;50.712;7.124;2023-04-10T05:25:57;4.80;99.90
46706;DHT22;33519;50.712;7.124;2023-04-10T05:28:24;4.90;99.90
46706;DHT22;33519;50.712;7.124;2023-04-10T05:30:51;5.00;99.90
46706;DHT22;33519;50.712;7.124;2023-04-10T05:33:17;5.20;99.90
46706;DHT22;33519;50.712;7.124;2023-04-10T05:35:44;5.30;99.90
46706;DHT22;33519;50.712;7.124;2023-04-10T05:38:11;5.50;99.90
46706;DHT22;33519;50.712;7.124;2023-04-10T05:40:38;5.70;99.90
46706;DHT22;33519;50.712;7.124;2023-04-10T05:43:04;5.90;99.90
46706;DHT22;33519;50.712;7.124;2023-04-10T05:45:31;6.10;99.90
46706;DHT22;33519;50.712;7.124;2023-04-10T05:47:57;6.20;99.90
46706;DHT22;33519;50.712;7.124;2023-04-10T05:50:24;6.40;99.90
46706;DHT22;33519;50.712;7.124;2023-04-10T05:52:51;6.50;99.90
46706;DHT22;33519;50.712;7.124;2023-04-10T05:55:17;6.60;99.90
46706;DHT22;33519;50.712;7.124;2023-04-10T05:57:44;6.80;99.90
46706;DHT22;33519;50.712;7.124;2023-04-10T06:00:11;6.90;99.90
46706;DHT22;33519;50.712;7.124;2023-04-10T06:02:39;7.00;99.90
46706;DHT22;33519;50.712;7.124;2023-04-10T06:05:06;7.10;99.90
46706;DHT22;33519;50.712;7.124;2023-04-10T06:07:33;7.20;99.90
46706;DHT22;33519;50.712;7.124;2023-04-10T06:10:00;7.20;99.90
46706;DHT22;33519;50.712;7.124;2023-04-10T06:12:26;7.30;99.90
46706;DHT22;33519;50.712;7.124;2023-04-10T06:14:53;7.30;99.90
46706;DHT22;33519;50.712;7.124;2023-04-10T06:17:20;7.40;99.90
46706;DHT22;33519;50.712;7.124;2023-04-10T06:19:47;7.50;99.90
46706;DHT22;33519;50.712;7.124;2023-04-10T06:22:13;7.60;99.90
46706;DHT22;33519;50.712;7.124;2023-04-10T06:24:40;7.70;99.90
46706;DHT22;33519;50.712;7.124;2023-04-10T06:27:07;7.70;99.90
46706;DHT22;33519;50.712;7.124;2023-04-10T06:29:34;7.80;99.90
46706;DHT22;33519;50.712;7.124;2023-04-10T06:32:04;7.80;99.90
46706;DHT22;33519;50.712;7.124;2023-04-10T06:34:31;7.90;99.90
46706;DHT22;33519;50.712;7.124;2023-04-10T06:36:58;8.00;99.90
46706;DHT22;33519;50.712;7.124;2023-04-10T06:39:26;8.10;99.90
46706;DHT22;33519;50.712;7.124;2023-04-10T06:41:53;8.20;99.90
46706;DHT22;33519;50.712;7.124;2023-04-10T06:44:19;8.30;99.90
46706;DHT22;33519;50.712;7.124;2023-04-10T06:46:46;8.40;99.90
46706;DHT22;33519;50.712;7.124;2023-04-10T06:49:13;8.50;99.90
46706;DHT22;33519;50.712;7.124;2023-04-10T06:51:43;8.60;99.90
46706;DHT22;33519;50.712;7.124;2023-04-10T06:54:11;8.70;99.90
46706;DHT22;33519;50.712;7.124;2023-04-10T06:56:37;8.70;99.90
46706;DHT22;33519;50.712;7.124;2023-04-10T06:59:04;8.80;99.90
46706;DHT22;33519;50.712;7.124;2023-04-10T07:01:31;8.90;99.90
46706;DHT22;33519;50.712;7.124;2023-04-10T07:03:58;9.00;99.90
46706;DHT22;33519;50.712;7.124;2023-04-10T07:06:27;9.10;99.90
46706;DHT22;33519;50.712;7.124;2023-04-10T07:08:57;9.20;99.90
46706;DHT22;33519;50.712;7.124;2023-04-10T07:11:23;9.30;99.90
46706;DHT22;33519;50.712;7.124;2023-04-10T07:13:50;9.40;99.90
46706;DHT22;33519;50.712;7.124;2023-04-10T07:16:19;9.50;99.90
46706;DHT22;33519;50.712;7.124;2023-04-10T07:18:46;9.60;99.90
46706;DHT22;33519;50.712;7.124;2023-04-10T07:21:13;9.70;99.90
46706;DHT22;33519;50.712;7.124;2023-04-10T07:23:39;9.90;99.90
46706;DHT22;33519;50.712;7.124;2023-04-10T07:26:06;10.00;99.90
46706;DHT22;33519;50.712;7.124;2023-04-10T07:28:33;10.20;99.90
46706;DHT22;33519;50.712;7.124;2023-04-10T07:30:59;10.30;99.90
46706;DHT22;33519;50.712;7.124;2023-04-10T07:33:26;10.40;99.90
46706;DHT22;33519;50.712;7.124;2023-04-10T07:35:53;10.40;99.90
46706;DHT22;33519;50.712;7.124;2023-04-10T07:38:20;10.50;99.90
46706;DHT22;33519;50.712;7.124;2023-04-10T07:40:46;10.60;99.90
46706;DHT22;33519;50.712;7.124;2023-04-10T07:43:13;10.70;99.90
46706;DHT22;33519;50.712;7.124;2023-04-10T07:45:40;10.90;99.90
46706;DHT22;33519;50.712;7.124;2023-04-10T07:48:06;10.80;99.90
46706;DHT22;33519;50.712;7.124;2023-04-10T07:50:33;10.90;99.90
46706;DHT22;33519;50.712;7.124;2023-04-10T07:53:01;11.00;99.90
46706;DHT22;33519;50.712;7.124;2023-04-10T07:55:36;11.00;99.90
46706;DHT22;33519;50.712;7.124;2023-04-10T07:58:03;11.00;99.90
46706;DHT22;33519;50.712;7.124;2023-04-10T08:00:29;11.10;99.90
46706;DHT22;33519;50.712;7.124;2023-04-10T08:02:56;11.10;99.90
46706;DHT22;33519;50.712;7.124;2023-04-10T08:05:24;11.10;99.90
46706;DHT22;33519;50.712;7.124;2023-04-10T08:07:52;11.10;99.90
46706;DHT22;33519;50.712;7.124;2023-04-10T08:10:18;11.30;99.90
46706;DHT22;33519;50.712;7.124;2023-04-10T08:12:45;11.40;99.80
46706;DHT22;33519;50.712;7.124;2023-04-10T08:15:12;11.40;99.50
46706;DHT22;33519;50.712;7.124;2023-04-10T08:17:38;11.40;99.30
46706;DHT22;33519;50.712;7.124;2023-04-10T08:20:05;11.50;99.40
46706;DHT22;33519;50.712;7.124;2023-04-10T08:22:32;11.70;98.90
46706;DHT22;33519;50.712;7.124;2023-04-10T08:24:58;11.70;98.50
46706;DHT22;33519;50.712;7.124;2023-04-10T08:27:25;11.80;98.60
46706;DHT22;33519;50.712;7.124;2023-04-10T08:29:52;11.90;98.50
46706;DHT22;33519;50.712;7.124;2023-04-10T08:32:18;12.00;98.30
46706;DHT22;33519;50.712;7.124;2023-04-10T08:34:45;12.00;98.10
46706;DHT22;33519;50.712;7.124;2023-04-10T08:37:11;12.10;97.70
46706;DHT22;33519;50.712;7.124;2023-04-10T08:39:40;12.20;97.50
46706;DHT22;33519;50.712;7.124;2023-04-10T08:42:07;12.40;96.90
46706;DHT22;33519;50.712;7.124;2023-04-10T08:44:34;12.60;96.90
46706;DHT22;33519;50.712;7.124;2023-04-10T08:47:02;12.80;96.00
46706;DHT22;33519;50.712;7.124;2023-04-10T08:49:36;12.80;95.20
46706;DHT22;33519;50.712;7.124;2023-04-10T08:52:06;12.90;94.80
46706;DHT22;33519;50.712;7.124;2023-04-10T08:54:34;13.10;94.40
46706;DHT22;33519;50.712;7.124;2023-04-10T08:57:03;13.10;93.70
46706;DHT22;33519;50.712;7.124;2023-04-10T08:59:33;13.10;94.10
46706;DHT22;33519;50.712;7.124;2023-04-10T09:01:59;13.20;94.10
46706;DHT22;33519;50.712;7.124;2023-04-10T09:04:26;13.20;94.20
46706;DHT22;33519;50.712;7.124;2023-04-10T09:06:53;13.20;94.10
46706;DHT22;33519;50.712;7.124;2023-04-10T09:09:20;13.20;93.90
46706;DHT22;33519;50.712;7.124;2023-04-10T09:14:22;13.30;93.30
46706;DHT22;33519;50.712;7.124;2023-04-10T09:16:50;13.50;93.20
46706;DHT22;33519;50.712;7.124;2023-04-10T09:19:32;13.60;92.90
46706;DHT22;33519;50.712;7.124;2023-04-10T09:21:59;14.00;92.40
46706;DHT22;33519;50.712;7.124;2023-04-10T09:24:26;14.00;92.00
46706;DHT22;33519;50.712;7.124;2023-04-10T09:26:53;14.30;91.60
46706;DHT22;33519;50.712;7.124;2023-04-10T09:29:20;14.30;91.30
46706;DHT22;33519;50.712;7.124;2023-04-10T09:31:46;14.60;90.40
46706;DHT22;33519;50.712;7.124;2023-04-10T09:34:15;15.00;89.90
46706;DHT22;33519;50.712;7.124;2023-04-10T09:36:43;15.10;90.10
46706;DHT22;33519;50.712;7.124;2023-04-10T09:39:10;15.40;88.70
46706;DHT22;33519;50.712;7.124;2023-04-10T09:41:50;15.30;87.80
46706;DHT22;33519;50.712;7.124;2023-04-10T09:44:27;15.80;85.40
46706;DHT22;33519;50.712;7.124;2023-04-10T09:46:55;15.80;86.60
46706;DHT22;33519;50.712;7.124;2023-04-10T09:49:22;15.60;86.20
46706;DHT22;33519;50.712;7.124;2023-04-10T09:51:49;15.40;85.10
46706;DHT22;33519;50.712;7.124;2023-04-10T09:54:15;15.20;86.20
46706;DHT22;33519;50.712;7.124;2023-04-10T09:56:43;15.20;86.40
46706;DHT22;33519;50.712;7.124;2023-04-10T09:59:10;16.00;85.40
46706;DHT22;33519;50.712;7.124;2023-04-10T10:01:39;17.00;82.20
46706;DHT22;33519;50.712;7.124;2023-04-10T10:04:06;17.20;79.00
46706;DHT22;33519;50.712;7.124;2023-04-10T10:06:33;16.90;80.00
46706;DHT22;33519;50.712;7.124;2023-04-10T10:09:01;16.80;79.70
46706;DHT22;33519;50.712;7.124;2023-04-10T10:11:28;16.90;80.50
46706;DHT22;33519;50.712;7.124;2023-04-10T10:13:55;16.80;79.70
46706;DHT22;33519;50.712;7.124;2023-04-10T10:16:37;17.10;77.80
46706;DHT22;33519;50.712;7.124;2023-04-10T10:19:07;17.10;78.10
46706;DHT22;33519;50.712;7.124;2023-04-10T10:21:35;17.60;77.00
46706;DHT22;33519;50.712;7.124;2023-04-10T10:24:02;17.60;76.50
46706;DHT22;33519;50.712;7.124;2023-04-10T10:26:32;17.80;76.10
46706;DHT22;33519;50.712;7.124;2023-04-10T10:29:04;18.50;74.20
46706;DHT22;33519;50.712;7.124;2023-04-10T10:31:34;17.90;74.70
46706;DHT22;33519;50.712;7.124;2023-04-10T10:34:02;18.00;73.20
46706;DHT22;33519;50.712;7.124;2023-04-10T10:36:30;18.70;72.10
46706;DHT22;33519;50.712;7.124;2023-04-10T10:41:25;19.80;70.50
46706;DHT22;33519;50.712;7.124;2023-04-10T10:44:01;20.30;68.50
46706;DHT22;33519;50.712;7.124;2023-04-10T10:46:51;20.50;67.20
46706;DHT22;33519;50.712;7.124;2023-04-10T10:49:36;21.20;64.90
46706;DHT22;33519;50.712;7.124;2023-04-10T10:52:09;20.60;65.40
46706;DHT22;33519;50.712;7.124;2023-04-10T10:54:38;20.60;65.30
46706;DHT22;33519;50.712;7.124;2023-04-10T11:00:04;19.60;65.50
46706;DHT22;33519;50.712;7.124;2023-04-10T11:02:31;19.60;66.00
46706;DHT22;33519;50.712;7.124;2023-04-10T11:04:58;20.30;65.20
46706;DHT22;33519;50.712;7.124;2023-04-10T11:08:05;19.40;65.30
46706;DHT22;33519;50.712;7.124;2023-04-10T11:10:11;19.10;66.30
46706;DHT22;33519;50.712;7.124;2023-04-10T11:13:13;18.90;67.00
46706;DHT22;33519;50.712;7.124;2023-04-10T11:15:24;19.20;63.90
46706;DHT22;33519;50.712;7.124;2023-04-10T11:17:54;18.70;66.60
46706;DHT22;33519;50.712;7.124;2023-04-10T11:20:21;19.00;67.10
46706;DHT22;33519;50.712;7.124;2023-04-10T11:23:06;19.40;66.00
46706;DHT22;33519;50.712;7.124;2023-04-10T11:25:52;19.40;62.90
46706;DHT22;33519;50.712;7.124;2023-04-10T11:33:40;19.10;63.50
46706;DHT22;33519;50.712;7.124;2023-04-10T11:36:07;18.80;61.60
46706;DHT22;33519;50.712;7.124;2023-04-10T11:38:34;18.30;62.10
46706;DHT22;33519;50.712;7.124;2023-04-10T11:41:01;18.50;62.80
46706;DHT22;33519;50.712;7.124;2023-04-10T11:43:29;18.60;62.10
46706;DHT22;33519;50.712;7.124;2023-04-10T11:46:03;18.40;61.40
46706;DHT22;33519;50.712;7.124;2023-04-10T11:48:31;18.20;61.70
46706;DHT22;33519;50.712;7.124;2023-04-10T11:50:57;18.00;60.90
46706;DHT22;33519;50.712;7.124;2023-04-10T11:53:27;18.00;61.00
46706;DHT22;33519;50.712;7.124;2023-04-10T11:55:55;18.20;61.60
46706;DHT22;33519;50.712;7.124;2023-04-10T11:58:26;18.40;60.20
46706;DHT22;33519;50.712;7.124;2023-04-10T12:03:30;18.10;61.30
46706;DHT22;33519;50.712;7.124;2023-04-10T12:05:57;18.10;60.80
46706;DHT22;33519;50.712;7.124;2023-04-10T12:08:30;17.70;62.00
46706;DHT22;33519;50.712;7.124;2023-04-10T12:10:57;17.80;61.50
46706;DHT22;33519;50.712;7.124;2023-04-10T12:13:25;17.70;61.40
46706;DHT22;33519;50.712;7.124;2023-04-10T12:15:52;17.70;60.30
46706;DHT22;33519;50.712;7.124;2023-04-10T12:18:20;17.70;61.00
46706;DHT22;33519;50.712;7.124;2023-04-10T12:20:47;17.60;61.00
46706;DHT22;33519;50.712;7.124;2023-04-10T12:23:14;17.80;60.90
46706;DHT22;33519;50.712;7.124;2023-04-10T12:25:41;17.90;60.70
46706;DHT22;33519;50.712;7.124;2023-04-10T12:28:07;18.00;60.50
46706;DHT22;33519;50.712;7.124;2023-04-10T12:30:34;18.00;60.70
46706;DHT22;33519;50.712;7.124;2023-04-10T12:33:01;18.10;61.10
46706;DHT22;33519;50.712;7.124;2023-04-10T12:35:37;18.20;61.30
46706;DHT22;33519;50.712;7.124;2023-04-10T12:38:04;18.40;60.90
46706;DHT22;33519;50.712;7.124;2023-04-10T12:40:31;18.40;62.70
46706;DHT22;33519;50.712;7.124;2023-04-10T12:42:57;18.60;60.90
46706;DHT22;33519;50.712;7.124;2023-04-10T12:45:40;18.80;61.60
46706;DHT22;33519;50.712;7.124;2023-04-10T12:48:07;18.80;60.10
46706;DHT22;33519;50.712;7.124;2023-04-10T12:50:44;18.60;60.90
46706;DHT22;33519;50.712;7.124;2023-04-10T12:53:11;18.80;60.40
46706;DHT22;33519;50.712;7.124;2023-04-10T12:55:40;19.00;61.60
46706;DHT22;33519;50.712;7.124;2023-04-10T12:58:14;19.30;60.40
46706;DHT22;33519;50.712;7.124;2023-04-10T13:00:46;19.40;60.60
46706;DHT22;33519;50.712;7.124;2023-04-10T13:03:12;19.50;60.50
46706;DHT22;33519;50.712;7.124;2023-04-10T13:05:39;19.50;60.90
46706;DHT22;33519;50.712;7.124;2023-04-10T13:08:06;19.20;61.00
46706;DHT22;33519;50.712;7.124;2023-04-10T13:10:32;19.20;61.10
46706;DHT22;33519;50.712;7.124;2023-04-10T13:12:59;19.40;61.00
46706;DHT22;33519;50.712;7.124;2023-04-10T13:15:26;19.60;61.20
46706;DHT22;33519;50.712;7.124;2023-04-10T13:17:52;19.40;61.20
46706;DHT22;33519;50.712;7.124;2023-04-10T13:20:19;19.10;62.00
46706;DHT22;33519;50.712;7.124;2023-04-10T13:22:47;19.10;62.80
46706;DHT22;33519;50.712;7.124;2023-04-10T13:25:14;19.10;63.20
46706;DHT22;33519;50.712;7.124;2023-04-10T13:27:42;19.00;62.00
46706;DHT22;33519;50.712;7.124;2023-04-10T13:30:09;18.90;62.00
46706;DHT22;33519;50.712;7.124;2023-04-10T13:32:36;18.90;62.70
46706;DHT22;33519;50.712;7.124;2023-04-10T13:35:03;19.00;62.30
46706;DHT22;33519;50.712;7.124;2023-04-10T13:37:29;19.20;61.70
46706;DHT22;33519;50.712;7.124;2023-04-10T13:39:56;19.20;61.90
46706;DHT22;33519;50.712;7.124;2023-04-10T13:42:23;19.30;62.00
46706;DHT22;33519;50.712;7.124;2023-04-10T13:44:49;19.30;62.00
46706;DHT22;33519;50.712;7.124;2023-04-10T13:47:16;19.40;62.00
46706;DHT22;33519;50.712;7.124;2023-04-10T13:49:43;19.70;60.90
46706;DHT22;33519;50.712;7.124;2023-04-10T13:52:09;19.70;61.80
46706;DHT22;33519;50.712;7.124;2023-04-10T13:54:36;19.60;60.80
46706;DHT22;33519;50.712;7.124;2023-04-10T13:57:03;19.60;61.20
46706;DHT22;33519;50.712;7.124;2023-04-10T13:59:29;19.50;61.80
46706;DHT22;33519;50.712;7.124;2023-04-10T14:01:56;19.80;62.00
46706;DHT22;33519;50.712;7.124;2023-04-10T14:04:23;20.50;60.20
46706;DHT22;33519;50.712;7.124;2023-04-10T14:06:49;20.70;60.30
46706;DHT22;33519;50.712;7.124;2023-04-10T14:09:18;21.20;60.00
46706;DHT22;33519;50.712;7.124;2023-04-10T14:11:45;21.10;58.20
46706;DHT22;33519;50.712;7.124;2023-04-10T14:14:11;20.80;59.10
46706;DHT22;33519;50.712;7.124;2023-04-10T14:16:38;20.60;58.70
46706;DHT22;33519;50.712;7.124;2023-04-10T14:19:04;20.70;59.50
46706;DHT22;33519;50.712;7.124;2023-04-10T14:21:31;20.60;58.80
46706;DHT22;33519;50.712;7.124;2023-04-10T14:23:58;20.30;59.20
46706;DHT22;33519;50.712;7.124;2023-04-10T14:26:25;19.90;61.10
46706;DHT22;33519;50.712;7.124;2023-04-10T14:28:52;20.20;59.30
46706;DHT22;33519;50.712;7.124;2023-04-10T14:33:55;20.10;59.60
46706;DHT22;33519;50.712;7.124;2023-04-10T14:36:21;19.80;57.90
46706;DHT22;33519;50.712;7.124;2023-04-10T14:38:48;19.50;56.80
46706;DHT22;33519;50.712;7.124;2023-04-10T14:41:14;19.30;56.70
46706;DHT22;33519;50.712;7.124;2023-04-10T14:43:41;19.30;55.70
46706;DHT22;33519;50.712;7.124;2023-04-10T14:46:10;19.20;55.90
46706;DHT22;33519;50.712;7.124;2023-04-10T14:48:36;18.90;56.20
46706;DHT22;33519;50.712;7.124;2023-04-10T14:51:06;18.90;56.20
46706;DHT22;33519;50.712;7.124;2023-04-10T14:53:34;18.80;56.40
46706;DHT22;33519;50.712;7.124;2023-04-10T14:56:05;18.70;56.40
46706;DHT22;33519;50.712;7.124;2023-04-10T14:58:34;18.70;56.70
46706;DHT22;33519;50.712;7.124;2023-04-10T15:01:00;19.00;56.60
46706;DHT22;33519;50.712;7.124;2023-04-10T15:03:27;19.10;57.00
46706;DHT22;33519;50.712;7.124;2023-04-10T15:05:57;19.40;57.00
46706;DHT22;33519;50.712;7.124;2023-04-10T15:08:24;19.60;57.50
46706;DHT22;33519;50.712;7.124;2023-04-10T15:10:51;19.70;56.70
46706;DHT22;33519;50.712;7.124;2023-04-10T15:13:19;19.60;57.10
46706;DHT22;33519;50.712;7.124;2023-04-10T15:15:46;19.00;57.70
46706;DHT22;33519;50.712;7.124;2023-04-10T15:18:14;18.90;58.50
46706;DHT22;33519;50.712;7.124;2023-04-10T15:20:41;18.80;59.00
46706;DHT22;33519;50.712;7.124;2023-04-10T15:23:08;19.00;59.40
46706;DHT22;33519;50.712;7.124;2023-04-10T15:25:35;19.00;58.80
46706;DHT22;33519;50.712;7.124;2023-04-10T15:28:01;18.80;59.20
46706;DHT22;33519;50.712;7.124;2023-04-10T15:30:29;18.70;59.40
46706;DHT22;33519;50.712;7.124;2023-04-10T15:32:56;18.60;59.80
46706;DHT22;33519;50.712;7.124;2023-04-10T15:35:23;18.40;59.90
46706;DHT22;33519;50.712;7.124;2023-04-10T15:37:51;18.20;60.90
46706;DHT22;33519;50.712;7.124;2023-04-10T15:40:18;18.10;61.50
46706;DHT22;33519;50.712;7.124;2023-04-10T15:42:45;18.10;60.80
46706;DHT22;33519;50.712;7.124;2023-04-10T15:45:11;17.90;61.20
46706;DHT22;33519;50.712;7.124;2023-04-10T15:47:38;17.80;62.10
46706;DHT22;33519;50.712;7.124;2023-04-10T15:50:04;17.80;62.00
46706;DHT22;33519;50.712;7.124;2023-04-10T15:52:31;17.80;62.10
46706;DHT22;33519;50.712;7.124;2023-04-10T15:54:59;17.70;62.10
46706;DHT22;33519;50.712;7.124;2023-04-10T15:57:25;17.60;63.50
46706;DHT22;33519;50.712;7.124;2023-04-10T15:59:52;17.60;64.00
46706;DHT22;33519;50.712;7.124;2023-04-10T16:02:19;17.40;62.80
46706;DHT22;33519;50.712;7.124;2023-04-10T16:04:45;17.30;63.50
46706;DHT22;33519;50.712;7.124;2023-04-10T16:07:12;17.20;63.60
46706;DHT22;33519;50.712;7.124;2023-04-10T16:09:42;17.10;63.90
46706;DHT22;33519;50.712;7.124;2023-04-10T16:12:09;17.10;64.40
46706;DHT22;33519;50.712;7.124;2023-04-10T16:14:36;17.00;64.20
46706;DHT22;33519;50.712;7.124;2023-04-10T16:17:02;16.90;64.50
46706;DHT22;33519;50.712;7.124;2023-04-10T16:19:29;16.90;64.70
46706;DHT22;33519;50.712;7.124;2023-04-10T16:21:56;16.80;65.90